Time;durP1;ratioP1;P1;durP2;ratioP2;P2;SDS_P1;SDS_P2;PMS_P1;PMS_P2;Temp;Humidity;BMP_temperature;BMP_pressure;BME280_temperature;BME280_humidity;BME280_pressure;Samples;Min_cycle;Max_cycle;Signal;HPM_P1;HPM_P2
2021/07/07 00:00:16;;;;;;;10.82;9.75;;;18.80;99.90;;;;;;4963987;28;20058;-85
2021/07/07 00:02:43;;;;;;;9.93;9.02;;;18.80;99.90;;;;;;4964140;28;20077;-85
2021/07/07 00:05:13;;;;;;;10.40;9.30;;;18.80;99.90;;;;;;4965544;28;20119;-84
2021/07/07 00:07:41;;;;;;;10.57;9.48;;;18.80;99.90;;;;;;4966724;28;20070;-85
2021/07/07 00:10:13;;;;;;;10.00;9.02;;;18.80;99.90;;;;;;4963327;28;20046;-85
2021/07/07 00:12:41;;;;;;;9.07;8.27;;;18.80;99.90;;;;;;4966665;28;20137;-85
2021/07/07 00:15:11;;;;;;;14.63;11.77;;;18.70;99.90;;;;;;4964734;28;20390;-85
2021/07/07 00:17:39;;;;;;;9.85;8.90;;;18.70;99.90;;;;;;4964911;28;20050;-85
2021/07/07 00:20:09;;;;;;;9.95;8.98;;;18.70;99.90;;;;;;4978703;28;20231;-85
2021/07/07 00:22:36;;;;;;;9.60;8.77;;;18.70;99.90;;;;;;4965163;28;20038;-85
2021/07/07 00:25:05;;;;;;;9.02;8.10;;;18.70;99.90;;;;;;4966063;28;20046;-84
2021/07/07 00:27:32;;;;;;;9.73;8.82;;;18.70;99.90;;;;;;4964250;28;20054;-85
2021/07/07 00:29:59;;;;;;;10.30;9.40;;;18.70;99.90;;;;;;4946284;28;20043;-85
2021/07/07 00:32:26;;;;;;;9.52;8.70;;;18.70;99.90;;;;;;4965046;28;20061;-84
2021/07/07 00:34:53;;;;;;;9.63;8.65;;;18.70;99.90;;;;;;4964873;28;20094;-85
2021/07/07 00:37:20;;;;;;;9.88;8.77;;;18.70;99.90;;;;;;4965977;28;20089;-84
2021/07/07 00:39:47;;;;;;;8.77;7.97;;;18.70;99.90;;;;;;4964278;28;20105;-85
2021/07/07 00:42:14;;;;;;;11.70;7.93;;;18.70;99.90;;;;;;4966523;28;20049;-85
2021/07/07 00:44:41;;;;;;;8.98;8.18;;;18.70;99.90;;;;;;4963942;28;20046;-85
2021/07/07 00:47:09;;;;;;;8.32;7.63;;;18.70;99.90;;;;;;4980270;28;20043;-85
2021/07/07 00:49:36;;;;;;;8.63;7.68;;;18.80;99.90;;;;;;4963651;28;20054;-85
2021/07/07 00:52:03;;;;;;;8.55;7.78;;;18.70;99.90;;;;;;4961670;28;20043;-85
2021/07/07 00:54:33;;;;;;;9.27;8.25;;;18.80;99.90;;;;;;4964389;28;20069;-85
2021/07/07 00:57:01;;;;;;;8.20;7.57;;;18.80;99.90;;;;;;4966612;28;20039;-85
2021/07/07 00:59:29;;;;;;;7.75;6.97;;;18.80;99.90;;;;;;4964063;28;20452;-85
2021/07/07 01:01:56;;;;;;;7.80;7.20;;;18.80;99.90;;;;;;4979887;28;20047;-85
2021/07/07 01:04:23;;;;;;;8.63;7.78;;;18.80;99.90;;;;;;4963150;28;20039;-85
2021/07/07 01:06:50;;;;;;;8.35;7.75;;;18.80;99.90;;;;;;4965927;28;20051;-85
2021/07/07 01:09:17;;;;;;;9.10;8.23;;;18.90;99.90;;;;;;4980482;28;20094;-85
2021/07/07 01:11:44;;;;;;;9.55;7.25;;;18.90;99.90;;;;;;4966556;28;20057;-85
2021/07/07 01:14:12;;;;;;;9.25;7.43;;;18.90;99.90;;;;;;4964100;28;20692;-85
2021/07/07 01:16:43;;;;;;;8.13;7.30;;;18.90;99.90;;;;;;4980091;28;20555;-85
2021/07/07 01:19:12;;;;;;;8.00;7.20;;;18.90;99.90;;;;;;4979155;28;20047;-85
2021/07/07 01:21:50;;;;;;;7.72;7.05;;;18.90;99.90;;;;;;4981072;28;20070;-84
2021/07/07 01:24:19;;;;;;;7.82;7.13;;;18.90;99.90;;;;;;4957111;28;20465;-85
2021/07/07 01:26:47;;;;;;;7.85;7.13;;;19.00;99.90;;;;;;4950931;28;20042;-85
2021/07/07 01:29:14;;;;;;;8.68;7.78;;;19.00;99.90;;;;;;4968423;28;20129;-85
2021/07/07 01:31:43;;;;;;;8.60;7.80;;;19.00;99.90;;;;;;4968618;28;20645;-85
2021/07/07 01:34:11;;;;;;;7.55;6.85;;;19.00;99.90;;;;;;4967008;28;20376;-85
2021/07/07 01:36:38;;;;;;;8.20;7.50;;;19.00;99.90;;;;;;4968522;28;20039;-85
2021/07/07 01:39:07;;;;;;;6.80;6.10;;;19.00;99.90;;;;;;4968064;28;20046;-85
2021/07/07 01:41:35;;;;;;;8.10;7.40;;;19.00;99.90;;;;;;4987608;28;20074;-85
2021/07/07 01:44:03;;;;;;;7.90;7.15;;;19.10;99.90;;;;;;4966735;28;20412;-85
2021/07/07 01:46:30;;;;;;;10.82;7.97;;;19.10;99.90;;;;;;4969317;28;20055;-85
2021/07/07 01:48:57;;;;;;;8.35;7.47;;;19.10;99.90;;;;;;4967503;28;20141;-85
2021/07/07 01:51:24;;;;;;;9.07;8.27;;;19.10;99.90;;;;;;4967938;28;20109;-85
2021/07/07 01:53:51;;;;;;;8.18;6.65;;;19.10;99.90;;;;;;4979346;28;20070;-85
2021/07/07 01:56:18;;;;;;;7.82;7.13;;;19.10;99.90;;;;;;4965413;28;20046;-85
2021/07/07 01:58:45;;;;;;;8.02;6.97;;;19.10;99.90;;;;;;4969165;28;20039;-85
2021/07/07 02:01:12;;;;;;;7.85;7.05;;;19.10;99.90;;;;;;4967288;28;20354;-85
2021/07/07 02:03:40;;;;;;;8.40;7.55;;;19.10;99.90;;;;;;4965762;28;20503;-83
2021/07/07 02:06:07;;;;;;;8.45;7.65;;;19.10;99.90;;;;;;4966936;28;20057;-85
2021/07/07 02:08:34;;;;;;;8.48;7.68;;;19.20;99.90;;;;;;4966321;28;20489;-84
2021/07/07 02:11:01;;;;;;;8.45;7.75;;;19.20;99.90;;;;;;4967585;28;20476;-84
2021/07/07 02:13:29;;;;;;;7.13;6.53;;;19.20;99.90;;;;;;4968644;28;20493;-86
2021/07/07 02:15:56;;;;;;;9.00;8.20;;;19.20;99.90;;;;;;4951813;28;20134;-86
2021/07/07 02:18:23;;;;;;;8.88;8.07;;;19.20;99.90;;;;;;4967501;28;20126;-86
2021/07/07 02:20:50;;;;;;;8.77;7.97;;;19.30;99.90;;;;;;4969016;28;20102;-85
2021/07/07 02:23:17;;;;;;;9.00;8.20;;;19.30;99.90;;;;;;4968102;28;20505;-86
2021/07/07 02:25:45;;;;;;;9.00;8.10;;;19.30;99.90;;;;;;4968154;28;20042;-85
2021/07/07 02:28:14;;;;;;;12.73;9.27;;;19.30;99.90;;;;;;4964436;28;20054;-86
2021/07/07 02:30:43;;;;;;;11.57;10.02;;;19.30;99.90;;;;;;4968771;28;20519;-86
2021/07/07 02:33:11;;;;;;;9.60;8.73;;;19.40;99.90;;;;;;4949605;28;20042;-85
2021/07/07 02:35:41;;;;;;;8.23;7.38;;;19.40;99.90;;;;;;4968717;28;20659;-86
2021/07/07 02:38:10;;;;;;;10.23;9.38;;;19.40;99.90;;;;;;4964155;28;20046;-86
2021/07/07 02:40:38;;;;;;;10.48;8.55;;;19.40;99.90;;;;;;4977848;28;20054;-86
2021/07/07 02:43:06;;;;;;;8.90;7.38;;;19.40;99.90;;;;;;4968301;28;20054;-85
2021/07/07 02:45:35;;;;;;;9.45;8.52;;;19.40;99.90;;;;;;4982441;28;20113;-86
2021/07/07 02:48:03;;;;;;;9.73;8.82;;;19.40;99.90;;;;;;4967099;28;20500;-85
2021/07/07 02:50:32;;;;;;;9.00;8.15;;;19.40;99.90;;;;;;4950415;28;20035;-86
2021/07/07 02:52:59;;;;;;;11.63;10.43;;;19.50;99.90;;;;;;4948746;28;20042;-86
2021/07/07 02:55:26;;;;;;;8.95;8.13;;;19.50;99.90;;;;;;4962729;28;20051;-86
2021/07/07 02:58:01;;;;;;;9.07;8.23;;;19.60;99.90;;;;;;4966404;28;20101;-86
2021/07/07 03:00:31;;;;;;;13.43;8.93;;;19.60;99.90;;;;;;4981817;28;20654;-86
2021/07/07 03:03:03;;;;;;;8.82;7.97;;;19.60;99.90;;;;;;4962868;28;20043;-86
2021/07/07 03:05:32;;;;;;;9.48;8.63;;;19.60;99.90;;;;;;4966989;28;20075;-86
2021/07/07 03:07:59;;;;;;;9.90;9.00;;;19.60;99.90;;;;;;4977955;28;20082;-86
2021/07/07 03:10:26;;;;;;;10.00;9.20;;;19.70;99.90;;;;;;4967443;28;20059;-86
2021/07/07 03:12:54;;;;;;;9.85;8.63;;;19.70;99.90;;;;;;4964049;28;21472;-86
2021/07/07 03:15:21;;;;;;;10.07;7.85;;;19.70;99.90;;;;;;4966822;28;20062;-86
2021/07/07 03:17:48;;;;;;;11.15;8.75;;;19.80;99.90;;;;;;4965540;28;20480;-86
2021/07/07 03:20:16;;;;;;;9.52;8.82;;;19.80;99.90;;;;;;4968410;28;20049;-86
2021/07/07 03:22:43;;;;;;;9.93;9.13;;;19.80;99.90;;;;;;4950676;28;20648;-86
2021/07/07 03:25:10;;;;;;;7.60;7.00;;;19.90;99.90;;;;;;4960390;28;20047;-86
2021/07/07 03:27:37;;;;;;;10.27;7.85;;;19.90;99.90;;;;;;4966827;28;20073;-86
2021/07/07 03:30:05;;;;;;;10.13;7.95;;;19.90;99.90;;;;;;4966796;28;20569;-85
2021/07/07 03:32:33;;;;;;;8.85;8.15;;;20.00;99.90;;;;;;4966808;28;20150;-86
2021/07/07 03:35:01;;;;;;;9.50;8.55;;;20.00;99.90;;;;;;4960966;28;20428;-86
2021/07/07 03:37:28;;;;;;;7.70;6.93;;;20.10;99.90;;;;;;4950692;28;20055;-86
2021/07/07 03:39:55;;;;;;;10.07;7.63;;;20.10;99.90;;;;;;4963964;28;20385;-86
2021/07/07 03:42:22;;;;;;;8.70;7.88;;;20.10;99.90;;;;;;4966570;28;20053;-86
2021/07/07 03:44:50;;;;;;;9.05;8.25;;;20.10;99.90;;;;;;4964450;28;20476;-85
2021/07/07 03:47:17;;;;;;;8.88;8.07;;;20.20;99.90;;;;;;4948082;28;20476;-86
2021/07/07 03:49:44;;;;;;;8.40;7.72;;;20.20;99.90;;;;;;4979392;28;20126;-86
2021/07/07 03:52:11;;;;;;;7.80;7.10;;;20.30;99.90;;;;;;4946165;28;20043;-86
2021/07/07 03:54:38;;;;;;;7.57;6.88;;;20.30;99.90;;;;;;4947512;28;20588;-86
2021/07/07 03:57:05;;;;;;;7.53;6.82;;;20.40;99.90;;;;;;4977892;28;20533;-86
2021/07/07 03:59:32;;;;;;;8.73;7.82;;;20.40;99.90;;;;;;4945853;28;20098;-86
2021/07/07 04:02:00;;;;;;;7.85;7.15;;;20.50;99.90;;;;;;4922551;28;20569;-86
2021/07/07 04:04:27;;;;;;;7.93;7.13;;;20.50;99.90;;;;;;4962679;28;20062;-86
2021/07/07 04:06:58;;;;;;;7.93;7.28;;;20.60;99.90;;;;;;4945212;28;20055;-86
2021/07/07 04:09:28;;;;;;;8.30;7.10;;;20.60;99.90;;;;;;4946288;28;20067;-86
2021/07/07 04:11:59;;;;;;;7.97;7.28;;;20.70;99.90;;;;;;4976049;28;20509;-86
2021/07/07 04:14:27;;;;;;;6.47;5.88;;;20.70;99.90;;;;;;4944941;28;20051;-86
2021/07/07 04:16:57;;;;;;;6.47;5.88;;;20.70;99.90;;;;;;4964780;28;20047;-86
2021/07/07 04:19:26;;;;;;;7.25;6.65;;;20.80;99.90;;;;;;4947061;28;20477;-86
2021/07/07 04:21:53;;;;;;;7.28;5.82;;;20.80;99.90;;;;;;4945135;28;20039;-86
2021/07/07 04:24:21;;;;;;;8.10;7.18;;;20.80;99.90;;;;;;4946233;28;20557;-85
2021/07/07 04:26:50;;;;;;;7.88;6.15;;;20.80;99.90;;;;;;4946547;28;20039;-86
2021/07/07 04:29:17;;;;;;;7.55;6.68;;;20.90;99.90;;;;;;4960218;28;20085;-86
2021/07/07 04:31:44;;;;;;;7.47;5.85;;;20.90;99.90;;;;;;4930340;28;20043;-86
2021/07/07 04:34:11;;;;;;;8.55;6.53;;;21.00;99.90;;;;;;4974666;28;20101;-85
2021/07/07 04:36:38;;;;;;;6.22;5.78;;;21.00;99.90;;;;;;4944574;28;20044;-86
2021/07/07 04:39:07;;;;;;;6.10;5.60;;;21.10;99.90;;;;;;4946221;28;20054;-86
2021/07/07 04:41:34;;;;;;;8.90;6.63;;;21.20;99.90;;;;;;4947265;28;20051;-86
2021/07/07 04:44:02;;;;;;;7.20;6.57;;;21.30;99.90;;;;;;4946505;28;20051;-86
2021/07/07 04:46:29;;;;;;;5.63;5.13;;;21.30;99.90;;;;;;4944178;28;20047;-86
2021/07/07 04:48:56;;;;;;;7.57;6.50;;;21.40;99.90;;;;;;4948165;28;20043;-85
2021/07/07 04:51:23;;;;;;;7.18;6.57;;;21.50;99.90;;;;;;4965897;28;20058;-86
2021/07/07 04:53:50;;;;;;;6.63;6.05;;;21.50;99.90;;;;;;4964975;28;20097;-85
2021/07/07 04:56:17;;;;;;;5.88;5.40;;;21.60;99.90;;;;;;4963392;28;20791;-85
2021/07/07 04:58:44;;;;;;;8.07;7.20;;;21.60;99.90;;;;;;4949457;28;20109;-86
2021/07/07 05:01:11;;;;;;;6.57;6.03;;;21.70;99.90;;;;;;4962331;28;20065;-86
2021/07/07 05:03:38;;;;;;;7.35;6.13;;;21.70;99.90;;;;;;4971445;28;20054;-86
2021/07/07 05:06:05;;;;;;;7.45;5.97;;;21.80;99.90;;;;;;4966822;28;20051;-86
2021/07/07 05:08:32;;;;;;;6.70;6.10;;;21.80;99.90;;;;;;4967478;28;20059;-86
2021/07/07 05:10:59;;;;;;;6.43;5.93;;;21.80;99.90;;;;;;4969016;28;20074;-86
2021/07/07 05:13:26;;;;;;;7.78;6.05;;;21.80;99.90;;;;;;4969868;28;20054;-86
2021/07/07 05:15:54;;;;;;;7.60;6.10;;;21.90;99.90;;;;;;4980754;28;20069;-86
2021/07/07 05:18:21;;;;;;;9.93;6.22;;;21.90;99.90;;;;;;4970347;28;20046;-86
2021/07/07 05:20:48;;;;;;;6.93;6.32;;;22.00;99.90;;;;;;4968167;28;20460;-86
2021/07/07 05:23:15;;;;;;;7.68;6.93;;;22.10;99.90;;;;;;4951489;28;20521;-86
2021/07/07 05:25:44;;;;;;;5.93;5.43;;;22.20;99.90;;;;;;4968997;28;20059;-85
2021/07/07 05:28:12;;;;;;;7.28;6.05;;;22.20;99.90;;;;;;4950071;28;20077;-86
2021/07/07 05:30:40;;;;;;;6.22;5.65;;;22.30;99.90;;;;;;4985623;28;20676;-86
2021/07/07 05:33:08;;;;;;;7.20;6.60;;;22.30;99.90;;;;;;4968688;28;20428;-86
2021/07/07 05:35:37;;;;;;;6.05;5.55;;;22.40;99.90;;;;;;4964378;28;20632;-86
2021/07/07 05:38:06;;;;;;;7.75;6.10;;;22.40;99.90;;;;;;4965949;28;20051;-85
2021/07/07 05:40:33;;;;;;;11.45;6.70;;;22.40;99.90;;;;;;4968553;28;20039;-86
2021/07/07 05:43:00;;;;;;;7.35;6.75;;;22.50;99.90;;;;;;4967971;28;20377;-86
2021/07/07 05:45:27;;;;;;;7.72;6.38;;;22.50;99.90;;;;;;4984043;28;20134;-86
2021/07/07 05:47:56;;;;;;;7.25;6.50;;;22.50;99.90;;;;;;4966957;28;20055;-85
2021/07/07 05:50:27;;;;;;;12.47;7.47;;;22.60;99.90;;;;;;4952988;28;20054;-86
2021/07/07 05:52:54;;;;;;;;;;;22.70;99.90;;;;;;4969206;28;20050;-86
2021/07/07 05:55:21;;;;;;;8.35;7.55;;;22.90;99.90;;;;;;4984743;28;19926;-86
2021/07/07 05:57:49;;;;;;;8.02;7.22;;;22.90;99.90;;;;;;4965881;28;20039;-86
2021/07/07 06:00:21;;;;;;;7.28;6.53;;;23.10;99.90;;;;;;4969751;28;20043;-86
2021/07/07 06:02:48;;;;;;;7.57;6.85;;;23.20;99.90;;;;;;4966767;28;20485;-85
2021/07/07 06:05:16;;;;;;;7.35;6.70;;;23.30;99.90;;;;;;4952271;28;20617;-86
2021/07/07 06:07:43;;;;;;;7.70;7.10;;;23.30;99.90;;;;;;4967804;28;20382;-86
2021/07/07 06:10:15;;;;;;;7.70;6.95;;;23.50;99.90;;;;;;4950693;28;20050;-86
2021/07/07 06:12:42;;;;;;;7.45;6.55;;;23.60;99.90;;;;;;4965797;28;20077;-86
2021/07/07 06:15:12;;;;;;;7.43;6.55;;;23.60;99.90;;;;;;4968315;28;20051;-86
2021/07/07 06:17:39;;;;;;;7.93;7.13;;;23.70;99.90;;;;;;4966448;28;20062;-86
2021/07/07 06:20:09;;;;;;;8.68;7.63;;;23.70;99.90;;;;;;4979134;28;20137;-86
2021/07/07 06:22:38;;;;;;;7.53;6.63;;;23.60;99.90;;;;;;4966212;28;20047;-86
2021/07/07 06:25:06;;;;;;;7.47;6.70;;;23.60;99.90;;;;;;4967680;28;20043;-86
2021/07/07 06:27:36;;;;;;;8.15;7.32;;;23.50;99.90;;;;;;4983019;28;20042;-86
2021/07/07 06:30:05;;;;;;;8.18;6.95;;;23.40;99.90;;;;;;4967270;28;20152;-86
2021/07/07 06:32:32;;;;;;;14.48;8.55;;;23.40;99.90;;;;;;4984243;28;20125;-86
2021/07/07 06:35:02;;;;;;;7.50;6.90;;;23.40;99.90;;;;;;4967511;28;20066;-86
2021/07/07 06:37:29;;;;;;;8.27;7.15;;;23.40;99.90;;;;;;4966703;28;20049;-86
2021/07/07 06:39:59;;;;;;;6.45;5.95;;;23.50;99.90;;;;;;4965943;28;20569;-86
2021/07/07 06:42:26;;;;;;;8.75;6.53;;;23.60;99.90;;;;;;4964971;28;20173;-86
2021/07/07 06:44:53;;;;;;;6.95;6.25;;;23.70;99.90;;;;;;4983355;28;20047;-86
2021/07/07 06:47:20;;;;;;;8.15;7.45;;;23.80;99.90;;;;;;4984029;28;20516;-86
2021/07/07 06:49:47;;;;;;;9.98;5.82;;;23.90;99.90;;;;;;4948646;28;20098;-86
2021/07/07 06:52:15;;;;;;;8.10;6.72;;;24.00;99.90;;;;;;4967023;28;20042;-86
2021/07/07 06:54:43;;;;;;;6.25;5.75;;;24.10;99.90;;;;;;4967870;28;20140;-86
2021/07/07 06:57:10;;;;;;;7.50;6.82;;;24.20;99.90;;;;;;4967423;28;20105;-86
2021/07/07 06:59:37;;;;;;;7.43;6.72;;;24.30;99.90;;;;;;4984038;28;20097;-86
2021/07/07 07:02:04;;;;;;;7.50;6.80;;;24.30;99.90;;;;;;4981428;28;20043;-86
2021/07/07 07:04:32;;;;;;;7.10;6.50;;;24.30;99.90;;;;;;4982989;28;20043;-86
2021/07/07 07:06:59;;;;;;;8.48;6.95;;;24.30;99.90;;;;;;4984489;28;20594;-86
2021/07/07 07:09:26;;;;;;;7.57;6.88;;;24.30;99.90;;;;;;4967973;28;20050;-86
2021/07/07 07:11:53;;;;;;;6.75;6.15;;;24.10;99.90;;;;;;4963072;28;20097;-86
2021/07/07 07:14:21;;;;;;;8.35;6.85;;;24.00;99.90;;;;;;4968927;28;20457;-86
2021/07/07 07:16:48;;;;;;;6.85;6.25;;;23.90;99.90;;;;;;4966679;28;20050;-86
2021/07/07 07:19:15;;;;;;;7.10;6.35;;;23.90;99.90;;;;;;4966684;28;20042;-85
2021/07/07 07:21:43;;;;;;;6.97;6.38;;;23.80;99.90;;;;;;4961314;28;20082;-86
2021/07/07 07:24:10;;;;;;;7.65;6.90;;;23.80;99.90;;;;;;4947898;28;20465;-86
2021/07/07 07:26:37;;;;;;;6.68;5.95;;;23.80;99.90;;;;;;4964947;28;20054;-86
2021/07/07 07:29:05;;;;;;;7.55;6.78;;;23.80;99.90;;;;;;4967441;28;20433;-86
2021/07/07 07:31:33;;;;;;;7.75;6.97;;;23.80;99.90;;;;;;4964490;28;20061;-86
2021/07/07 07:34:00;;;;;;;7.72;6.85;;;23.80;99.90;;;;;;4966796;28;20047;-86
2021/07/07 07:36:27;;;;;;;7.25;6.65;;;23.80;99.90;;;;;;4970382;28;20050;-86
2021/07/07 07:39:04;;;;;;;7.40;5.78;;;23.80;99.90;;;;;;4968299;28;20572;-86
2021/07/07 07:41:39;;;;;;;8.13;6.35;;;23.80;99.90;;;;;;4962013;28;20094;-86
2021/07/07 07:44:09;;;;;;;6.85;6.35;;;23.80;99.90;;;;;;4966219;28;20050;-86
2021/07/07 07:46:36;;;;;;;6.85;6.13;;;23.80;99.90;;;;;;4965029;28;20042;-86
2021/07/07 07:49:06;;;;;;;6.50;5.90;;;23.70;99.90;;;;;;4949314;28;20110;-86
2021/07/07 07:51:34;;;;;;;7.35;6.70;;;23.80;99.90;;;;;;4965558;28;20121;-86
2021/07/07 07:54:01;;;;;;;6.97;6.18;;;23.80;99.90;;;;;;4948806;28;20039;-86
2021/07/07 07:56:28;;;;;;;7.47;6.55;;;23.80;99.90;;;;;;4965505;28;20059;-86
2021/07/07 07:58:54;;;;;;;7.35;6.72;;;23.90;99.90;;;;;;4965891;28;20054;-86
2021/07/07 08:01:24;;;;;;;12.45;7.90;;;24.10;99.90;;;;;;4965398;28;20069;-86
2021/07/07 08:03:51;;;;;;;6.75;6.25;;;24.20;99.90;;;;;;4966901;28;20045;-86
2021/07/07 08:06:18;;;;;;;7.78;6.80;;;24.30;99.90;;;;;;4965898;28;20117;-86
2021/07/07 08:08:46;;;;;;;7.20;6.57;;;24.30;99.90;;;;;;4964671;28;20054;-86
2021/07/07 08:11:12;;;;;;;6.68;6.07;;;24.40;99.90;;;;;;4966283;28;20061;-86
2021/07/07 08:13:40;;;;;;;8.52;7.82;;;24.40;99.90;;;;;;4963885;28;20129;-86
2021/07/07 08:16:08;;;;;;;7.28;6.57;;;24.50;99.90;;;;;;4966608;28;20109;-86
2021/07/07 08:18:35;;;;;;;8.13;7.40;;;24.60;99.90;;;;;;4983998;28;20077;-86
2021/07/07 08:21:03;;;;;;;8.63;7.53;;;24.60;99.90;;;;;;4964676;28;20046;-86
2021/07/07 08:23:30;;;;;;;7.15;6.65;;;24.60;99.90;;;;;;4965040;28;20666;-86
2021/07/07 08:25:57;;;;;;;6.65;5.93;;;24.50;99.90;;;;;;4965899;28;20047;-86
2021/07/07 08:28:24;;;;;;;6.70;6.10;;;24.50;99.90;;;;;;4966701;28;20105;-86
2021/07/07 08:30:51;;;;;;;7.45;6.78;;;24.50;99.90;;;;;;4966399;28;20062;-86
2021/07/07 08:33:19;;;;;;;6.57;5.97;;;24.50;99.90;;;;;;4963175;28;20113;-86
2021/07/07 08:35:46;;;;;;;6.20;5.63;;;24.50;99.90;;;;;;4965920;28;20050;-86
2021/07/07 08:38:13;;;;;;;5.82;5.32;;;24.60;99.90;;;;;;4962239;28;20448;-85
2021/07/07 08:40:40;;;;;;;7.05;6.45;;;24.60;99.90;;;;;;4966372;28;20398;-85
2021/07/07 08:43:09;;;;;;;8.00;7.20;;;24.60;99.90;;;;;;4965361;28;20094;-85
2021/07/07 08:45:36;;;;;;;5.82;5.25;;;24.50;99.90;;;;;;4966154;28;20097;-85
2021/07/07 08:48:04;;;;;;;6.82;5.97;;;24.40;99.90;;;;;;4963646;28;20523;-86
2021/07/07 08:50:34;;;;;;;6.50;5.85;;;24.40;99.90;;;;;;4966519;28;20078;-86
2021/07/07 08:53:03;;;;;;;;;;;24.30;99.90;;;;;;4980790;28;20045;-86
2021/07/07 08:55:31;;;;;;;6.60;5.90;;;24.20;99.90;;;;;;4964855;28;19953;-86
2021/07/07 08:57:59;;;;;;;6.78;6.13;;;24.10;99.90;;;;;;4960897;28;20043;-86
2021/07/07 09:00:33;;;;;;;7.70;7.00;;;24.00;99.90;;;;;;4963211;28;20043;-86
2021/07/07 09:03:03;;;;;;;7.55;6.50;;;23.90;99.90;;;;;;4981407;28;20541;-86
2021/07/07 09:05:31;;;;;;;8.00;5.90;;;23.80;99.90;;;;;;4984446;28;20053;-86
2021/07/07 09:08:05;;;;;;;6.07;5.57;;;23.80;99.90;;;;;;4946139;28;20558;-86
2021/07/07 09:10:33;;;;;;;6.45;5.82;;;23.70;99.90;;;;;;4965444;28;20031;-86
2021/07/07 09:13:15;;;;;;;6.63;5.63;;;23.60;99.90;;;;;;4976396;28;20429;-86
2021/07/07 09:15:42;;;;;;;6.25;5.75;;;23.50;99.90;;;;;;4962142;28;20047;-85
2021/07/07 09:18:32;;;;;;;7.85;5.75;;;23.50;99.90;;;;;;4962201;28;20775;-86
2021/07/07 09:20:59;;;;;;;;;;;23.40;99.90;;;;;;4963121;28;20481;-86
2021/07/07 09:23:28;;;;;;;6.50;5.95;;;23.50;99.90;;;;;;4964581;28;19926;-87
2021/07/07 09:26:01;;;;;;;12.48;5.88;;;23.50;99.90;;;;;;4962228;28;20074;-86
2021/07/07 09:28:34;;;;;;;5.35;4.95;;;23.50;99.90;;;;;;4982685;28;20106;-86
2021/07/07 09:31:05;;;;;;;5.45;4.95;;;23.50;99.90;;;;;;4979815;28;20042;-86
2021/07/07 09:33:39;;;;;;;5.38;4.88;;;23.50;99.90;;;;;;4965912;28;20042;-86
2021/07/07 09:36:25;;;;;;;4.55;4.15;;;23.60;99.90;;;;;;4957563;28;21006;-85
2021/07/07 09:38:53;;;;;;;7.38;4.88;;;23.60;99.90;;;;;;4965439;28;20528;-85
2021/07/07 09:41:21;;;;;;;11.13;6.03;;;23.70;99.90;;;;;;4964180;28;20081;-86
2021/07/07 09:43:54;;;;;;;5.35;4.93;;;23.70;99.90;;;;;;4978367;28;20808;-85
2021/07/07 09:46:22;;;;;;;6.40;5.80;;;23.70;99.90;;;;;;4980602;28;20050;-86
2021/07/07 09:48:53;;;;;;;7.30;4.43;;;23.70;99.90;;;;;;4966715;28;20145;-86
2021/07/07 09:51:20;;;;;;;4.45;4.05;;;23.70;99.90;;;;;;4968169;28;20050;-85
2021/07/07 09:53:48;;;;;;;4.88;3.85;;;23.60;99.90;;;;;;4965915;28;20107;-85
2021/07/07 09:56:14;;;;;;;6.20;5.15;;;23.50;99.90;;;;;;4983935;28;20830;-84
2021/07/07 09:58:41;;;;;;;5.93;4.90;;;23.40;99.90;;;;;;4985678;28;20078;-85
2021/07/07 10:01:08;;;;;;;5.40;4.53;;;23.30;99.90;;;;;;4969273;28;20039;-86
2021/07/07 10:03:36;;;;;;;5.43;4.60;;;23.20;99.90;;;;;;4984829;28;20604;-86
2021/07/07 10:06:05;;;;;;;6.43;4.47;;;23.10;99.90;;;;;;4966672;28;20043;-86
2021/07/07 10:08:34;;;;;;;5.90;4.77;;;23.10;99.90;;;;;;4965659;28;20098;-85
2021/07/07 10:11:01;;;;;;;7.40;5.70;;;23.00;99.90;;;;;;4966873;28;20486;-85
2021/07/07 10:13:30;;;;;;;6.32;4.95;;;22.80;99.90;;;;;;4967299;28;20039;-85
2021/07/07 10:15:57;;;;;;;4.63;4.22;;;22.80;99.90;;;;;;4981186;28;20035;-85
2021/07/07 10:18:24;;;;;;;8.80;5.43;;;22.80;99.90;;;;;;4967387;28;20097;-85
2021/07/07 10:20:52;;;;;;;8.65;5.75;;;22.70;99.90;;;;;;4969582;28;20499;-85
2021/07/07 10:23:21;;;;;;;5.00;4.60;;;22.70;99.90;;;;;;4969014;28;20058;-85
2021/07/07 10:25:59;;;;;;;9.00;5.68;;;22.80;99.90;;;;;;4965870;28;20141;-85
2021/07/07 10:28:27;;;;;;;5.72;5.22;;;22.80;99.90;;;;;;4962119;28;20566;-85
2021/07/07 10:31:00;;;;;;;5.88;4.93;;;22.90;99.90;;;;;;4967859;28;20050;-85
2021/07/07 10:33:32;;;;;;;7.78;5.93;;;22.80;99.90;;;;;;4967695;28;20047;-85
2021/07/07 10:36:32;;;;;;;5.53;5.05;;;22.80;99.90;;;;;;4966347;28;20069;-85
2021/07/07 10:39:07;;;;;;;7.03;5.72;;;22.90;99.90;;;;;;4950045;28;20039;-85
2021/07/07 10:41:46;;;;;;;8.30;6.55;;;22.80;99.90;;;;;;4962629;28;20047;-85
2021/07/07 10:44:23;;;;;;;6.50;5.63;;;22.70;99.90;;;;;;4966500;28;20456;-86
2021/07/07 10:46:54;;;;;;;6.10;5.50;;;22.60;99.90;;;;;;4982128;28;20132;-85
2021/07/07 10:49:30;;;;;;;6.97;5.88;;;22.60;99.90;;;;;;4981096;28;20063;-85
2021/07/07 10:51:59;;;;;;;5.78;5.18;;;22.50;99.90;;;;;;4963975;28;20051;-85
2021/07/07 10:54:35;;;;;;;7.72;5.53;;;22.40;99.90;;;;;;4967580;28;20054;-86
2021/07/07 10:57:07;;;;;;;8.18;6.78;;;22.40;99.90;;;;;;4949538;28;21078;-85
2021/07/07 10:59:47;;;;;;;7.25;6.10;;;22.30;99.90;;;;;;4966788;28;20034;-85
2021/07/07 11:02:21;;;;;;;7.00;5.72;;;22.30;99.90;;;;;;4949468;28;20050;-84
2021/07/07 11:04:52;;;;;;;11.73;6.63;;;22.30;99.90;;;;;;4967658;28;20593;-84
2021/07/07 11:07:31;;;;;;;9.30;6.72;;;22.20;99.90;;;;;;4965775;28;20043;-84
2021/07/07 11:10:13;;;;;;;9.83;6.93;;;22.10;99.90;;;;;;4980516;28;20687;-83
2021/07/07 11:12:41;;;;;;;8.95;8.02;;;22.00;99.90;;;;;;4950188;28;20051;-83
2021/07/07 11:15:15;;;;;;;7.57;6.88;;;21.90;99.90;;;;;;4980651;28;20038;-83
2021/07/07 11:17:50;;;;;;;10.35;7.05;;;21.90;99.90;;;;;;4967187;28;20492;-84
2021/07/07 11:20:20;;;;;;;7.50;6.80;;;21.90;99.90;;;;;;4963655;28;20058;-83
2021/07/07 11:23:09;;;;;;;7.22;6.30;;;21.90;99.90;;;;;;4949430;28;20039;-84
2021/07/07 11:25:38;;;;;;;6.68;5.85;;;22.00;99.90;;;;;;4963474;28;20445;-83
2021/07/07 11:28:08;;;;;;;7.57;6.03;;;21.90;99.90;;;;;;4964555;28;20054;-83
2021/07/07 11:30:35;;;;;;;6.13;5.43;;;21.80;99.90;;;;;;4965970;28;20043;-84
2021/07/07 11:33:06;;;;;;;7.47;5.22;;;21.80;99.90;;;;;;4967732;28;20058;-84
2021/07/07 11:35:39;;;;;;;7.55;5.70;;;21.70;99.90;;;;;;4966388;28;20058;-83
2021/07/07 11:38:26;;;;;;;7.55;6.85;;;21.60;99.90;;;;;;4979669;28;20050;-83
2021/07/07 11:40:54;;;;;;;6.07;5.32;;;21.60;99.90;;;;;;4965925;28;20047;-84
2021/07/07 11:43:24;;;;;;;6.88;6.35;;;21.70;99.90;;;;;;4965974;28;20135;-84
2021/07/07 11:46:03;;;;;;;9.63;7.18;;;21.70;99.90;;;;;;4978770;28;20066;-84
2021/07/07 11:51:17;;;;;;;10.02;7.88;;;21.70;99.90;;;;;;4983905;28;20496;-83
2021/07/07 11:53:52;;;;;;;8.98;8.07;;;21.70;99.90;;;;;;4982026;28;20935;-83
2021/07/07 11:56:21;;;;;;;8.38;7.47;;;21.70;99.90;;;;;;4979871;28;20673;-84
2021/07/07 11:58:50;;;;;;;9.82;8.55;;;21.70;99.90;;;;;;4963816;28;20046;-83
2021/07/07 12:01:21;;;;;;;9.15;8.27;;;21.70;99.90;;;;;;4982004;28;20728;-83
2021/07/07 12:03:54;;;;;;;12.05;9.23;;;21.70;99.90;;;;;;4964038;28;20116;-83
2021/07/07 12:06:33;;;;;;;10.45;9.45;;;21.60;99.90;;;;;;4965359;28;20097;-82
2021/07/07 12:09:05;;;;;;;13.73;9.30;;;21.60;99.90;;;;;;4963127;28;20043;-83
2021/07/07 12:11:32;;;;;;;11.25;9.68;;;21.50;99.90;;;;;;4987089;28;20043;-83
2021/07/07 12:14:03;;;;;;;9.88;8.90;;;21.50;99.90;;;;;;4965086;28;20058;-84
2021/07/07 12:16:36;;;;;;;14.45;10.18;;;21.50;99.90;;;;;;4951456;28;20148;-84
2021/07/07 12:19:10;;;;;;;12.15;11.05;;;21.50;99.90;;;;;;4962354;28;20051;-83
2021/07/07 12:21:47;;;;;;;11.30;10.02;;;21.60;99.90;;;;;;4951130;28;20103;-84
2021/07/07 12:24:21;;;;;;;12.98;11.77;;;21.70;99.90;;;;;;4963783;28;20042;-84
2021/07/07 12:26:55;;;;;;;12.15;10.40;;;21.80;99.90;;;;;;4966438;28;20043;-84
2021/07/07 12:29:23;;;;;;;9.52;8.65;;;21.90;99.90;;;;;;4966400;28;20530;-84
2021/07/07 12:31:58;;;;;;;13.35;12.10;;;21.90;99.90;;;;;;4961992;28;20047;-84
2021/07/07 12:34:49;;;;;;;11.55;8.85;;;21.90;99.90;;;;;;4966005;28;20050;-84
2021/07/07 12:37:17;;;;;;;11.27;10.18;;;21.90;99.90;;;;;;4960668;28;20047;-84
2021/07/07 12:39:50;;;;;;;10.32;9.38;;;21.90;99.90;;;;;;4972360;28;20802;-84
2021/07/07 12:42:24;;;;;;;9.82;9.00;;;21.80;99.90;;;;;;4979513;28;20050;-84
2021/07/07 12:45:12;;;;;;;12.95;11.65;;;21.80;99.90;;;;;;4981777;28;20047;-84
2021/07/07 12:47:41;;;;;;;11.63;10.70;;;21.70;99.90;;;;;;4947905;28;20073;-84
2021/07/07 12:50:24;;;;;;;11.18;10.07;;;21.60;99.90;;;;;;4966638;28;20062;-84
2021/07/07 12:52:51;;;;;;;12.15;10.30;;;21.50;99.90;;;;;;4966427;28;20047;-84
2021/07/07 12:55:20;;;;;;;13.00;10.32;;;21.40;99.90;;;;;;4948738;28;20479;-84
2021/07/07 12:57:50;;;;;;;14.25;12.63;;;21.40;99.90;;;;;;4964751;28;20042;-84